createdAt,value
2018-05-27T00:00:17.234Z,8.27
2018-05-27T00:02:44.863Z,8.20
2018-05-27T00:05:12.498Z,6.43
2018-05-27T00:07:40.116Z,7.43
2018-05-27T00:10:07.726Z,6.93
2018-05-27T00:12:35.337Z,7.37
2018-05-27T00:15:02.949Z,7.20
2018-05-27T00:17:30.581Z,6.27
2018-05-27T00:19:59.003Z,8.40
2018-05-27T00:22:26.592Z,6.33
2018-05-27T00:24:54.173Z,6.60
2018-05-27T00:27:21.820Z,5.80
2018-05-27T00:29:49.390Z,6.30
2018-05-27T00:32:17.010Z,6.57
2018-05-27T00:34:44.594Z,6.30
2018-05-27T00:37:12.233Z,7.47
2018-05-27T00:39:39.834Z,6.20
2018-05-27T00:42:07.425Z,7.43
2018-05-27T00:44:35.071Z,6.50
2018-05-27T00:47:02.715Z,7.13
2018-05-27T00:49:30.294Z,6.70
2018-05-27T00:51:57.917Z,8.30
2018-05-27T00:54:25.541Z,7.70
2018-05-27T00:56:53.890Z,7.50
2018-05-27T00:59:21.518Z,8.00
2018-05-27T01:01:49.103Z,8.60
2018-05-27T01:04:16.727Z,9.93
2018-05-27T01:06:44.350Z,9.10
2018-05-27T01:09:12.078Z,9.50
2018-05-27T01:11:42.803Z,9.67
2018-05-27T01:14:13.778Z,11.17
2018-05-27T01:16:44.113Z,10.50
2018-05-27T01:19:14.814Z,9.80
2018-05-27T01:21:44.771Z,11.90
2018-05-27T01:24:15.425Z,11.00
2018-05-27T01:26:45.818Z,10.63
2018-05-27T01:29:15.667Z,10.70
2018-05-27T01:31:43.262Z,10.87
2018-05-27T01:34:10.885Z,11.00
2018-05-27T01:36:38.493Z,9.50
2018-05-27T01:39:06.126Z,9.73
2018-05-27T01:41:33.741Z,8.97
2018-05-27T01:44:01.374Z,8.37
2018-05-27T01:46:28.976Z,8.10
2018-05-27T01:48:57.374Z,8.97
2018-05-27T01:51:25.016Z,9.40
2018-05-27T01:53:53.410Z,8.53
2018-05-27T01:56:21.755Z,8.20
2018-05-27T01:58:49.332Z,8.43
2018-05-27T02:01:16.952Z,7.97
2018-05-27T02:03:44.532Z,9.30
2018-05-27T02:06:12.159Z,9.40
2018-05-27T02:08:39.743Z,7.73
2018-05-27T02:11:07.375Z,6.87
2018-05-27T02:13:34.974Z,7.43
2018-05-27T02:16:02.558Z,7.57
2018-05-27T02:18:30.981Z,7.03
2018-05-27T02:20:58.591Z,5.70
2018-05-27T02:23:26.223Z,6.30
2018-05-27T02:25:53.802Z,7.40
2018-05-27T02:28:21.429Z,6.83
2018-05-27T02:30:49.033Z,6.60
2018-05-27T02:33:16.670Z,6.73
2018-05-27T02:35:44.263Z,7.33
2018-05-27T02:38:11.906Z,7.30
2018-05-27T02:40:39.541Z,7.90
2018-05-27T02:43:07.138Z,7.37
2018-05-27T02:45:34.749Z,7.00
2018-05-27T02:48:02.356Z,6.10
2018-05-27T02:50:29.981Z,7.03
2018-05-27T02:52:57.587Z,7.20
2018-05-27T02:55:25.211Z,7.03
2018-05-27T02:57:52.800Z,7.83
2018-05-27T03:00:20.425Z,6.90
2018-05-27T03:02:48.009Z,6.90
2018-05-27T03:05:15.670Z,7.27
2018-05-27T03:07:43.270Z,7.17
2018-05-27T03:10:11.705Z,6.30
2018-05-27T03:12:39.294Z,7.13
2018-05-27T03:15:06.893Z,6.60
2018-05-27T03:17:35.277Z,7.30
2018-05-27T03:20:02.876Z,7.93
2018-05-27T03:22:30.563Z,7.30
2018-05-27T03:24:58.174Z,6.77
2018-05-27T03:27:25.770Z,9.13
2018-05-27T03:29:53.438Z,10.80
2018-05-27T03:32:21.022Z,10.40
2018-05-27T03:34:48.646Z,11.27
2018-05-27T03:37:16.243Z,10.68
2018-05-27T03:39:44.647Z,10.27
2018-05-27T03:42:12.291Z,10.73
2018-05-27T03:44:40.649Z,10.73
2018-05-27T03:47:08.243Z,9.33
2018-05-27T03:49:35.875Z,11.02
2018-05-27T03:52:03.525Z,10.90
2018-05-27T03:54:31.109Z,11.87
2018-05-27T03:56:59.538Z,10.15
2018-05-27T03:59:27.187Z,10.87
2018-05-27T04:01:54.819Z,9.57
2018-05-27T04:04:35.124Z,9.38
2018-05-27T04:07:15.367Z,8.70
2018-05-27T04:09:42.955Z,9.32
2018-05-27T04:12:10.567Z,9.70
2018-05-27T04:14:38.213Z,8.70
2018-05-27T04:17:05.802Z,8.80
2018-05-27T04:19:33.460Z,8.15
2018-05-27T04:22:01.064Z,8.87
2018-05-27T04:24:28.652Z,9.80
2018-05-27T04:26:56.274Z,8.90
2018-05-27T04:29:23.901Z,9.30
2018-05-27T04:31:51.521Z,9.80
2018-05-27T04:34:19.164Z,10.10
2018-05-27T04:36:46.760Z,8.43
2018-05-27T04:39:14.368Z,7.40
2018-05-27T04:41:41.956Z,7.97
2018-05-27T04:44:09.596Z,7.82
2018-05-27T04:46:37.193Z,8.83
2018-05-27T04:49:04.822Z,9.40
2018-05-27T04:51:32.402Z,8.63
2018-05-27T04:54:00.055Z,9.40
2018-05-27T04:56:28.410Z,8.00
2018-05-27T04:58:56.014Z,9.40
2018-05-27T05:01:23.644Z,8.80
2018-05-27T05:03:51.238Z,9.70
2018-05-27T05:06:18.877Z,8.27
2018-05-27T05:08:46.486Z,9.13
2018-05-27T05:11:14.117Z,8.35
2018-05-27T05:13:41.696Z,8.95
2018-05-27T05:16:09.323Z,9.70
2018-05-27T05:18:36.963Z,8.70
2018-05-27T05:21:05.310Z,8.27
2018-05-27T05:23:32.954Z,9.13
2018-05-27T05:26:00.535Z,9.38
2018-05-27T05:28:28.132Z,9.43
2018-05-27T05:30:55.761Z,9.30
2018-05-27T05:33:23.349Z,9.90
2018-05-27T05:35:51.725Z,9.50
2018-05-27T05:38:20.141Z,10.37
2018-05-27T05:40:47.725Z,9.93
2018-05-27T05:43:15.357Z,9.40
2018-05-27T05:45:43.004Z,9.80
2018-05-27T05:48:10.596Z,10.27
2018-05-27T05:50:38.187Z,11.00
2018-05-27T05:53:05.820Z,10.50
2018-05-27T05:55:33.401Z,11.67
2018-05-27T05:58:00.985Z,10.30
2018-05-27T06:00:29.385Z,9.50
2018-05-27T06:02:56.994Z,9.23
2018-05-27T06:05:24.638Z,9.40
2018-05-27T06:07:52.241Z,8.23
2018-05-27T06:10:19.825Z,8.70
2018-05-27T06:12:48.218Z,7.77
2018-05-27T06:15:15.827Z,8.60
2018-05-27T06:17:43.453Z,8.17
2018-05-27T06:20:11.030Z,7.67
2018-05-27T06:22:38.648Z,7.83
2018-05-27T06:25:07.018Z,7.87
2018-05-27T06:27:34.656Z,8.43
2018-05-27T06:30:02.241Z,8.30
2018-05-27T06:32:30.640Z,8.17
2018-05-27T06:34:58.228Z,6.40
2018-05-27T06:37:25.875Z,8.00
2018-05-27T06:39:54.235Z,8.20
2018-05-27T06:42:21.821Z,7.40
2018-05-27T06:44:49.443Z,7.17
2018-05-27T06:47:17.799Z,7.33
2018-05-27T06:49:45.435Z,7.37
2018-05-27T06:52:13.034Z,7.37
2018-05-27T06:54:40.619Z,7.20
2018-05-27T06:57:09.009Z,7.47
2018-05-27T06:59:36.589Z,6.53
2018-05-27T07:02:04.216Z,6.93
2018-05-27T07:04:32.658Z,8.00
2018-05-27T07:07:00.204Z,6.67
2018-05-27T07:09:27.801Z,7.63
2018-05-27T07:11:55.415Z,7.37
2018-05-27T07:14:23.797Z,7.17
2018-05-27T07:16:52.212Z,6.20
2018-05-27T07:19:19.793Z,6.60
2018-05-27T07:21:48.165Z,6.60
2018-05-27T07:24:15.779Z,6.40
2018-05-27T07:26:43.401Z,6.17
2018-05-27T07:29:11.032Z,6.93
2018-05-27T07:31:38.620Z,6.53
2018-05-27T07:34:07.019Z,6.17
2018-05-27T07:36:34.631Z,6.77
2018-05-27T07:39:02.210Z,6.03
2018-05-27T07:41:29.838Z,5.67
2018-05-27T07:43:57.420Z,6.20
2018-05-27T07:46:25.045Z,7.17
2018-05-27T07:48:52.670Z,5.57
2018-05-27T07:51:21.065Z,6.50
2018-05-27T07:53:49.407Z,7.17
2018-05-27T07:56:16.983Z,6.53
2018-05-27T07:58:45.398Z,6.67
2018-05-27T08:01:12.969Z,6.73
2018-05-27T08:03:40.582Z,6.77
2018-05-27T08:06:08.938Z,6.00
2018-05-27T08:08:36.570Z,6.70
2018-05-27T08:11:04.141Z,6.80
2018-05-27T08:13:31.764Z,6.53
2018-05-27T08:16:00.150Z,7.40
2018-05-27T08:18:28.489Z,6.47
2018-05-27T08:20:56.140Z,7.00
2018-05-27T08:23:23.705Z,6.10
2018-05-27T08:25:51.331Z,6.37
2018-05-27T08:28:18.970Z,7.00
2018-05-27T08:30:47.370Z,7.70
2018-05-27T08:33:15.477Z,6.07
2018-05-27T08:35:43.102Z,7.00
2018-05-27T08:38:10.757Z,5.77
2018-05-27T08:40:38.330Z,6.17
2018-05-27T08:43:06.717Z,5.93
2018-05-27T08:45:34.282Z,6.07
2018-05-27T08:48:01.898Z,6.30
2018-05-27T08:50:29.718Z,5.50
2018-05-27T08:52:57.354Z,6.03
2018-05-27T08:55:25.001Z,6.20
2018-05-27T08:57:53.433Z,6.70
2018-05-27T09:00:20.982Z,6.37
2018-05-27T09:02:48.619Z,5.77
2018-05-27T09:05:16.248Z,6.17
2018-05-27T09:07:43.836Z,6.63
2018-05-27T09:10:11.463Z,5.40
2018-05-27T09:12:39.068Z,5.30
2018-05-27T09:15:06.689Z,5.67
2018-05-27T09:17:35.105Z,6.43
2018-05-27T09:20:02.690Z,5.90
2018-05-27T09:22:30.333Z,6.73
2018-05-27T09:24:58.004Z,5.50
2018-05-27T09:27:25.641Z,6.03
2018-05-27T09:29:53.986Z,5.13
2018-05-27T09:32:21.599Z,6.27
2018-05-27T09:34:49.210Z,6.03
2018-05-27T09:37:16.840Z,5.63
2018-05-27T09:39:44.421Z,5.97
2018-05-27T09:42:12.001Z,5.30
2018-05-27T09:44:40.414Z,4.83
2018-05-27T09:47:08.023Z,5.37
2018-05-27T09:49:35.622Z,5.40
2018-05-27T09:52:04.001Z,5.67
2018-05-27T09:54:32.353Z,5.60
2018-05-27T09:57:00.024Z,4.77
2018-05-27T09:59:27.610Z,5.13
2018-05-27T10:01:55.955Z,5.43
2018-05-27T10:04:23.595Z,5.07
2018-05-27T10:06:51.213Z,5.23
2018-05-27T10:09:19.558Z,5.40
2018-05-27T10:11:47.201Z,5.17
2018-05-27T10:14:14.811Z,5.00
2018-05-27T10:16:42.409Z,4.53
2018-05-27T10:19:10.053Z,4.57
2018-05-27T10:21:37.648Z,4.40
2018-05-27T10:24:05.302Z,4.20
2018-05-27T10:26:32.897Z,4.93
2018-05-27T10:29:00.529Z,5.40
2018-05-27T10:31:28.106Z,4.63
2018-05-27T10:33:55.721Z,5.70
2018-05-27T10:36:23.306Z,5.30
2018-05-27T10:38:50.919Z,4.40
2018-05-27T10:41:19.326Z,3.90
2018-05-27T10:43:46.905Z,4.33
2018-05-27T10:46:14.527Z,4.07
2018-05-27T10:48:42.865Z,4.23
2018-05-27T10:51:10.498Z,4.20
2018-05-27T10:53:38.074Z,4.03
2018-05-27T10:56:05.693Z,4.20
2018-05-27T10:58:34.068Z,4.30
2018-05-27T11:01:02.445Z,4.20
2018-05-27T11:03:30.055Z,4.10
2018-05-27T11:05:57.697Z,3.97
2018-05-27T11:08:25.278Z,4.17
2018-05-27T11:10:52.911Z,3.83
2018-05-27T11:13:20.487Z,3.93
2018-05-27T11:15:48.063Z,3.73
2018-05-27T11:18:15.725Z,4.80
2018-05-27T11:20:43.315Z,4.93
2018-05-27T11:23:10.907Z,4.10
2018-05-27T11:25:39.300Z,4.30
2018-05-27T11:28:06.880Z,4.30
2018-05-27T11:30:34.513Z,4.43
2018-05-27T11:33:02.846Z,4.20
2018-05-27T11:35:30.465Z,4.10
2018-05-27T11:37:58.851Z,3.80
2018-05-27T11:40:26.449Z,3.80
2018-05-27T11:42:54.073Z,3.40
2018-05-27T11:45:21.641Z,4.17
2018-05-27T11:47:49.265Z,4.33
2018-05-27T11:50:17.614Z,3.40
2018-05-27T11:52:45.303Z,3.40
2018-05-27T11:55:13.678Z,3.93
2018-05-27T11:57:41.319Z,3.70
2018-05-27T12:00:08.935Z,3.40
2018-05-27T12:02:36.516Z,4.07
2018-05-27T12:05:04.905Z,4.20
2018-05-27T12:07:32.504Z,4.07
2018-05-27T12:10:00.306Z,4.20
2018-05-27T12:12:29.277Z,4.43
2018-05-27T12:14:56.879Z,4.37
2018-05-27T12:17:24.502Z,4.13
2018-05-27T12:19:52.113Z,4.07
2018-05-27T12:22:19.727Z,3.63
2018-05-27T12:24:48.074Z,4.00
2018-05-27T12:27:15.695Z,3.60
2018-05-27T12:29:43.407Z,4.67
2018-05-27T12:32:10.993Z,4.10
2018-05-27T12:34:38.581Z,3.27
2018-05-27T12:37:06.174Z,4.37
2018-05-27T12:39:33.813Z,4.77
2018-05-27T12:42:01.394Z,5.00
2018-05-27T12:44:29.049Z,5.23
2018-05-27T12:46:56.645Z,4.53
2018-05-27T12:49:24.241Z,5.30
2018-05-27T12:51:51.856Z,4.57
2018-05-27T12:54:19.449Z,4.57
2018-05-27T12:56:47.871Z,4.70
2018-05-27T12:59:15.451Z,4.30
2018-05-27T13:01:43.090Z,4.80
2018-05-27T13:04:10.719Z,5.00
2018-05-27T13:06:38.313Z,4.93
2018-05-27T13:09:05.911Z,4.83
2018-05-27T13:11:33.562Z,4.60
2018-05-27T13:14:01.199Z,5.07
2018-05-27T13:16:28.867Z,4.90
2018-05-27T13:18:56.429Z,6.00
2018-05-27T13:21:24.048Z,4.70
2018-05-27T13:23:51.664Z,5.10
2018-05-27T13:26:19.327Z,4.90
2018-05-27T13:28:46.911Z,4.70
2018-05-27T13:31:15.298Z,5.30
2018-05-27T13:33:42.898Z,5.60
2018-05-27T13:36:10.536Z,5.10
2018-05-27T13:38:38.164Z,5.23
2018-05-27T13:41:05.766Z,4.90
2018-05-27T13:43:33.379Z,5.40
2018-05-27T13:46:00.963Z,5.10
2018-05-27T13:48:29.342Z,5.40
2018-05-27T13:50:57.689Z,4.83
2018-05-27T13:53:25.319Z,5.17
2018-05-27T13:55:52.945Z,4.93
2018-05-27T13:58:21.346Z,4.53
2018-05-27T14:00:48.961Z,4.73
2018-05-27T14:03:16.552Z,5.30
2018-05-27T14:05:44.892Z,4.30
2018-05-27T14:08:12.525Z,4.20
2018-05-27T14:10:40.165Z,4.80
2018-05-27T14:13:08.549Z,4.10
2018-05-27T14:15:36.174Z,4.80
2018-05-27T14:18:03.826Z,4.00
2018-05-27T14:20:31.450Z,4.10
2018-05-27T14:22:59.031Z,4.10
2018-05-27T14:25:26.643Z,3.83
2018-05-27T14:27:55.013Z,3.73
2018-05-27T14:30:22.596Z,4.50
2018-05-27T14:32:50.251Z,3.87
2018-05-27T14:35:18.591Z,3.90
2018-05-27T14:37:46.211Z,4.20
2018-05-27T14:40:13.829Z,4.70
2018-05-27T14:42:41.489Z,3.70
2018-05-27T14:45:09.078Z,3.87
2018-05-27T14:47:37.435Z,4.30
2018-05-27T14:50:05.071Z,3.90
2018-05-27T14:52:32.726Z,3.23
2018-05-27T14:55:00.345Z,3.70
2018-05-27T14:57:28.687Z,3.90
2018-05-27T14:59:56.313Z,3.90
2018-05-27T15:02:23.910Z,4.30
2018-05-27T15:04:51.581Z,4.23
2018-05-27T15:07:19.229Z,3.90
2018-05-27T15:09:46.904Z,3.70
2018-05-27T15:12:14.594Z,3.70
2018-05-27T15:14:42.136Z,4.23
2018-05-27T15:17:10.591Z,4.00
2018-05-27T15:19:38.173Z,4.53
2018-05-27T15:22:05.777Z,4.30
2018-05-27T15:24:33.359Z,4.83
2018-05-27T15:27:00.988Z,4.10
2018-05-27T15:29:29.336Z,4.30
2018-05-27T15:31:57.024Z,3.83
2018-05-27T15:34:24.584Z,3.70
2018-05-27T15:36:52.212Z,3.70
2018-05-27T15:39:19.832Z,4.40
2018-05-27T15:41:47.414Z,4.00
2018-05-27T15:44:15.046Z,4.20
2018-05-27T15:46:42.628Z,4.07
2018-05-27T15:49:10.243Z,3.70
2018-05-27T15:51:38.654Z,4.23
2018-05-27T15:54:06.237Z,3.53
2018-05-27T15:56:34.644Z,4.13
2018-05-27T15:59:02.231Z,4.03
2018-05-27T16:01:30.613Z,3.50
2018-05-27T16:03:58.986Z,4.00
2018-05-27T16:06:27.401Z,4.13
2018-05-27T16:08:54.977Z,4.20
2018-05-27T16:11:22.597Z,4.13
2018-05-27T16:13:50.183Z,3.80
2018-05-27T16:16:17.888Z,5.00
2018-05-27T16:18:45.489Z,4.47
2018-05-27T16:21:13.996Z,4.50
2018-05-27T16:23:41.684Z,4.00
2018-05-27T16:26:09.374Z,4.70
2018-05-27T16:28:37.014Z,4.60
2018-05-27T16:31:04.631Z,5.70
2018-05-27T16:33:32.218Z,5.17
2018-05-27T16:35:59.997Z,5.23
2018-05-27T16:38:27.571Z,5.13
2018-05-27T16:40:55.182Z,5.40
2018-05-27T16:43:22.794Z,5.67
2018-05-27T16:45:50.457Z,5.40
2018-05-27T16:48:18.049Z,5.00
2018-05-27T16:50:46.399Z,5.00
2018-05-27T16:53:14.021Z,5.40
2018-05-27T16:55:41.662Z,4.97
2018-05-27T16:58:09.250Z,5.07
2018-05-27T17:00:36.829Z,4.83
2018-05-27T17:03:04.477Z,5.60
2018-05-27T17:05:32.084Z,5.93
2018-05-27T17:08:00.441Z,5.93
2018-05-27T17:10:28.098Z,6.80
2018-05-27T17:12:55.707Z,6.00
2018-05-27T17:15:23.411Z,5.90
2018-05-27T17:17:51.033Z,6.63
2018-05-27T17:20:18.638Z,6.67
2018-05-27T17:22:46.255Z,5.70
2018-05-27T17:25:13.946Z,6.60
2018-05-27T17:27:41.590Z,6.30
2018-05-27T17:30:09.217Z,5.60
2018-05-27T17:32:36.786Z,6.07
2018-05-27T17:35:04.676Z,5.83
2018-05-27T17:37:32.287Z,6.17
2018-05-27T17:40:00.725Z,6.00
2018-05-27T17:42:28.319Z,6.07
2018-05-27T17:44:55.937Z,6.40
2018-05-27T17:47:23.584Z,6.10
2018-05-27T17:49:51.952Z,6.00
2018-05-27T17:52:19.629Z,5.80
2018-05-27T17:54:48.002Z,5.60
2018-05-27T17:57:15.627Z,5.40
2018-05-27T17:59:43.279Z,5.93
2018-05-27T18:02:11.727Z,6.43
2018-05-27T18:04:39.354Z,6.03
2018-05-27T18:07:06.930Z,6.60
2018-05-27T18:09:35.331Z,6.60
2018-05-27T18:12:03.717Z,6.13
2018-05-27T18:14:31.334Z,6.80
2018-05-27T18:16:58.930Z,6.23
2018-05-27T18:19:26.574Z,5.60
2018-05-27T18:21:54.172Z,6.63
2018-05-27T18:24:21.798Z,6.83
2018-05-27T18:26:49.381Z,7.00
2018-05-27T18:29:17.006Z,6.67
2018-05-27T18:31:44.684Z,7.70
2018-05-27T18:34:12.299Z,7.80
2018-05-27T18:36:39.959Z,6.70
2018-05-27T18:39:07.609Z,6.87
2018-05-27T18:41:35.184Z,7.20
2018-05-27T18:44:02.785Z,6.70
2018-05-27T18:46:30.402Z,6.53
2018-05-27T18:48:58.009Z,6.50
2018-05-27T18:51:25.659Z,6.80
2018-05-27T18:53:53.253Z,6.90
2018-05-27T18:56:21.606Z,6.70
2018-05-27T18:58:49.234Z,6.63
2018-05-27T19:01:19.682Z,7.50
2018-05-27T19:03:47.311Z,7.60
2018-05-27T19:06:14.966Z,7.53
2018-05-27T19:08:42.561Z,8.17
2018-05-27T19:11:10.188Z,8.33
2018-05-27T19:13:37.797Z,6.90
2018-05-27T19:16:05.378Z,7.33
2018-05-27T19:18:33.788Z,6.87
2018-05-27T19:21:01.391Z,7.30
2018-05-27T19:23:29.036Z,7.70
2018-05-27T19:25:56.679Z,8.57
2018-05-27T19:28:24.264Z,7.30
2018-05-27T19:30:51.870Z,8.10
2018-05-27T19:33:20.250Z,8.07
2018-05-27T19:35:48.605Z,8.10
2018-05-27T19:38:16.228Z,8.77
2018-05-27T19:40:43.854Z,8.60
2018-05-27T19:43:12.259Z,7.73
2018-05-27T19:45:39.864Z,7.90
2018-05-27T19:48:07.507Z,7.27
2018-05-27T19:50:35.090Z,7.30
2018-05-27T19:53:02.731Z,8.00
2018-05-27T19:55:30.321Z,6.67
2018-05-27T19:57:57.935Z,7.83
2018-05-27T20:00:25.517Z,8.27
2018-05-27T20:02:55.440Z,7.60
2018-05-27T20:05:23.022Z,7.00
2018-05-27T20:07:50.674Z,7.57
2018-05-27T20:10:18.302Z,7.83
2018-05-27T20:12:45.925Z,8.43
2018-05-27T20:15:14.320Z,7.30
2018-05-27T20:17:41.938Z,7.60
2018-05-27T20:20:09.530Z,7.50
2018-05-27T20:22:37.948Z,8.60
2018-05-27T20:25:05.541Z,8.07
2018-05-27T20:27:33.194Z,8.77
2018-05-27T20:30:00.831Z,7.20
2018-05-27T20:32:28.432Z,7.70
2018-05-27T20:34:56.109Z,7.90
2018-05-27T20:37:23.714Z,9.10
2018-05-27T20:39:51.329Z,8.13
2018-05-27T20:42:18.937Z,7.63
2018-05-27T20:44:46.519Z,8.50
2018-05-27T20:47:14.162Z,8.50
2018-05-27T20:49:41.765Z,7.47
2018-05-27T20:52:09.393Z,7.30
2018-05-27T20:54:37.030Z,7.17
2018-05-27T20:57:04.613Z,7.23
2018-05-27T20:59:32.229Z,7.87
2018-05-27T21:02:00.574Z,7.70
2018-05-27T21:04:28.212Z,8.23
2018-05-27T21:06:55.809Z,7.43
2018-05-27T21:09:23.394Z,6.50
2018-05-27T21:11:51.811Z,7.43
2018-05-27T21:14:19.407Z,8.73
2018-05-27T21:16:47.013Z,7.10
2018-05-27T21:19:14.637Z,7.20
2018-05-27T21:21:42.294Z,7.50
2018-05-27T21:24:09.893Z,7.17
2018-05-27T21:26:38.287Z,7.23
2018-05-27T21:29:05.890Z,7.37
2018-05-27T21:31:33.529Z,7.20
2018-05-27T21:34:01.117Z,7.20
2018-05-27T21:36:28.714Z,7.60
2018-05-27T21:38:57.127Z,8.13
2018-05-27T21:41:24.733Z,8.20
2018-05-27T21:43:52.368Z,7.93
2018-05-27T21:46:20.014Z,7.67
2018-05-27T21:48:47.651Z,7.87
2018-05-27T21:51:15.250Z,7.53
2018-05-27T21:53:42.857Z,7.53
2018-05-27T21:56:11.220Z,7.93
2018-05-27T21:58:38.878Z,7.83
2018-05-27T22:01:07.268Z,8.10
2018-05-27T22:03:34.925Z,7.40
2018-05-27T22:06:02.514Z,6.30
2018-05-27T22:08:30.922Z,6.87
2018-05-27T22:10:58.502Z,6.00
2018-05-27T22:13:26.912Z,5.40
2018-05-27T22:15:54.499Z,6.40
2018-05-27T22:18:22.113Z,6.77
2018-05-27T22:20:49.742Z,6.83
2018-05-27T22:23:17.373Z,6.57
2018-05-27T22:25:45.737Z,5.97
2018-05-27T22:28:13.379Z,6.30
2018-05-27T22:30:40.977Z,5.60
2018-05-27T22:33:09.381Z,6.40
2018-05-27T22:35:36.984Z,5.80
2018-05-27T22:38:04.617Z,5.77
2018-05-27T22:40:33.008Z,5.30
2018-05-27T22:43:00.662Z,5.90
2018-05-27T22:45:28.282Z,6.03
2018-05-27T22:47:56.678Z,6.00
2018-05-27T22:50:24.310Z,5.50
2018-05-27T22:52:51.937Z,6.20
2018-05-27T22:55:19.584Z,5.70
2018-05-27T22:57:47.974Z,5.30
2018-05-27T23:00:15.562Z,5.70
2018-05-27T23:02:43.189Z,5.50
2018-05-27T23:05:10.815Z,5.50
2018-05-27T23:07:39.227Z,5.80
2018-05-27T23:10:06.822Z,6.23
2018-05-27T23:12:34.459Z,5.70
2018-05-27T23:15:02.850Z,5.20
2018-05-27T23:17:30.426Z,6.17
2018-05-27T23:19:58.054Z,6.00
2018-05-27T23:22:25.629Z,5.30
2018-05-27T23:24:53.264Z,5.90
2018-05-27T23:27:20.865Z,5.77
2018-05-27T23:29:48.437Z,6.20
2018-05-27T23:32:16.088Z,6.27
2018-05-27T23:34:43.715Z,5.70
2018-05-27T23:37:11.316Z,6.63
2018-05-27T23:39:38.905Z,6.20
2018-05-27T23:42:07.307Z,6.30
2018-05-27T23:44:34.943Z,7.10
2018-05-27T23:47:02.526Z,7.63
2018-05-27T23:49:30.159Z,8.57
2018-05-27T23:51:57.746Z,7.77
2018-05-27T23:54:26.150Z,7.90
2018-05-27T23:56:53.777Z,8.77
2018-05-27T23:59:21.368Z,8.03
